Time;durP1;ratioP1;P1;durP2;ratioP2;P2;SDS_P1;SDS_P2;PMS_P1;PMS_P2;Temp;Humidity;BMP_temperature;BMP_pressure;BME280_temperature;BME280_humidity;BME280_pressure;Samples;Min_cycle;Max_cycle;Signal;HPM_P1;HPM_P2
2022/01/04 00:02:24;;;;;;;15.40;4.80;;;;;;;6.02;76.18;97797.08;108411;1272;22855;-74
2022/01/04 00:04:51;;;;;;;13.40;5.70;;;;;;;5.98;76.35;97797.81;108343;1274;22570;-73
2022/01/04 00:07:18;;;;;;;15.30;6.00;;;;;;;5.96;76.39;97796.25;108324;1274;22546;-73
2022/01/04 00:09:45;;;;;;;16.30;5.90;;;;;;;5.93;76.05;97793.80;108320;1274;23464;-74
2022/01/04 00:14:58;;;;;;;10.90;4.50;;;;;;;5.88;76.35;97786.32;108352;1274;22560;-73
2022/01/04 00:17:25;;;;;;;16.90;5.40;;;;;;;5.91;76.65;97788.37;108503;1274;22694;-73
2022/01/04 00:19:52;;;;;;;13.00;4.90;;;;;;;5.91;77.14;97785.48;108325;1274;24376;-73
2022/01/04 00:22:19;;;;;;;10.50;5.10;;;;;;;5.92;77.53;97783.84;108332;1274;22632;-73
2022/01/04 00:24:46;;;;;;;11.80;4.90;;;;;;;5.88;77.73;97782.50;108338;1274;22721;-74
2022/01/04 00:27:13;;;;;;;13.50;5.60;;;;;;;5.87;77.59;97778.27;108341;1272;25313;-75
2022/01/04 00:29:40;;;;;;;15.10;5.20;;;;;;;5.85;77.44;97774.41;108356;1274;22725;-74
2022/01/04 00:32:08;;;;;;;10.70;4.40;;;;;;;5.83;77.42;97775.20;108338;1274;22553;-75
2022/01/04 00:34:35;;;;;;;12.00;4.40;;;;;;;5.85;77.77;97774.76;108398;1274;22554;-74
2022/01/04 00:37:02;;;;;;;11.20;4.90;;;;;;;5.83;78.32;97770.17;108351;1274;22612;-74
2022/01/04 00:39:29;;;;;;;10.20;4.30;;;;;;;5.83;78.82;97766.59;108342;1274;22679;-74
2022/01/04 00:41:56;;;;;;;9.50;4.10;;;;;;;5.77;79.16;97763.48;108318;1274;23073;-74
2022/01/04 00:44:23;;;;;;;11.00;4.30;;;;;;;5.73;78.89;97760.44;108348;1274;23515;-74
2022/01/04 00:46:50;;;;;;;12.20;4.50;;;;;;;5.70;78.67;97762.35;108303;1274;23497;-75
2022/01/04 00:49:17;;;;;;;14.50;5.30;;;;;;;5.70;78.69;97764.62;108305;1274;22566;-75
2022/01/04 00:51:47;;;;;;;11.10;5.40;;;;;;;5.71;79.13;97759.88;108362;1274;25613;-74
2022/01/04 00:54:16;;;;;;;11.20;5.60;;;;;;;5.70;79.50;97763.70;108341;1274;22571;-74
2022/01/04 00:56:45;;;;;;;12.00;5.50;;;;;;;5.67;80.32;97762.30;108377;1274;23205;-75
2022/01/04 00:59:13;;;;;;;14.40;6.10;;;;;;;5.63;80.88;97766.85;108361;1274;22578;-74
2022/01/04 01:01:40;;;;;;;12.60;5.30;;;;;;;5.63;79.98;97767.23;108324;1274;22578;-76
2022/01/04 01:04:08;;;;;;;13.10;5.00;;;;;;;5.60;79.99;97768.44;108650;1272;23204;-76
2022/01/04 01:06:35;;;;;;;13.40;5.40;;;;;;;5.62;80.79;97771.43;108745;1274;22577;-74
2022/01/04 01:09:04;;;;;;;11.30;5.90;;;;;;;5.61;80.50;97771.35;108278;1274;22643;-74
2022/01/04 01:11:31;;;;;;;12.30;5.10;;;;;;;5.62;80.81;97761.78;108316;1272;22663;-74
2022/01/04 01:13:58;;;;;;;11.50;5.60;;;;;;;5.59;81.13;97759.88;108304;1273;22546;-74
2022/01/04 01:16:24;;;;;;;13.10;5.90;;;;;;;5.57;81.10;97758.60;108010;1274;481253;-74
2022/01/04 01:18:51;;;;;;;12.90;5.00;;;;;;;5.52;81.14;97755.79;108374;1272;22569;-74
2022/01/04 01:21:19;;;;;;;13.00;5.80;;;;;;;5.48;81.22;97748.40;108344;1274;22780;-74
2022/01/04 01:23:54;;;;;;;13.70;5.80;;;;;;;5.49;81.34;97746.27;109999;1262;22782;-72
2022/01/04 01:26:21;;;;;;;10.20;5.10;;;;;;;5.49;81.89;97748.19;108367;1274;22573;-75
2022/01/04 01:28:47;;;;;;;11.70;4.70;;;;;;;5.48;82.11;97745.98;108242;1274;22733;-75
2022/01/04 01:31:14;;;;;;;13.10;5.70;;;;;;;5.50;82.26;97740.36;108205;1274;22631;-74
2022/01/04 01:33:41;;;;;;;13.60;5.90;;;;;;;5.47;82.37;97740.56;108227;1274;22557;-74
2022/01/04 01:36:08;;;;;;;13.90;6.50;;;;;;;5.45;82.16;97736.34;108213;1274;22560;-74
2022/01/04 01:38:35;;;;;;;14.00;6.80;;;;;;;5.44;82.11;97731.77;108220;1274;22557;-74
2022/01/04 01:41:02;;;;;;;13.90;6.00;;;;;;;5.43;81.65;97727.33;108269;1274;22586;-74
2022/01/04 01:43:29;;;;;;;13.10;7.00;;;;;;;5.46;81.67;97724.54;108217;1274;22562;-75
2022/01/04 01:45:57;;;;;;;16.40;6.50;;;;;;;5.47;81.79;97719.63;108238;1274;24494;-74
2022/01/04 01:48:24;;;;;;;11.70;5.40;;;;;;;5.48;82.69;97712.65;108430;1274;22550;-73
2022/01/04 01:50:52;;;;;;;11.40;5.40;;;;;;;5.43;82.67;97713.53;108218;1274;23016;-73
2022/01/04 01:53:19;;;;;;;12.10;5.80;;;;;;;5.41;82.51;97709.98;108305;1274;22567;-73
2022/01/04 01:55:46;;;;;;;11.10;5.30;;;;;;;5.39;82.42;97706.81;108298;1274;24212;-74
2022/01/04 01:58:13;;;;;;;11.10;4.80;;;;;;;5.43;82.41;97704.38;108212;1274;26310;-74
2022/01/04 02:00:40;;;;;;;10.70;4.80;;;;;;;5.45;82.58;97699.19;108193;1274;22576;-75
2022/01/04 02:03:07;;;;;;;11.20;5.00;;;;;;;5.43;82.92;97693.83;108230;1274;22544;-75
2022/01/04 02:05:34;;;;;;;10.40;4.80;;;;;;;5.38;82.92;97690.46;108230;1274;22566;-73
2022/01/04 02:08:04;;;;;;;12.00;5.70;;;;;;;5.35;82.64;97686.00;108210;1274;22752;-76
2022/01/04 02:10:31;;;;;;;10.80;5.20;;;;;;;5.34;82.79;97680.20;108210;1272;24324;-76
2022/01/04 02:12:59;;;;;;;9.80;4.50;;;;;;;5.38;82.55;97676.67;108230;1274;22615;-75
2022/01/04 02:15:29;;;;;;;11.40;4.90;;;;;;;5.40;82.48;97673.78;108191;1274;24358;-76
2022/01/04 02:17:56;;;;;;;8.20;4.20;;;;;;;5.40;82.78;97661.39;108202;1274;22560;-76
2022/01/04 02:20:23;;;;;;;8.20;4.20;;;;;;;5.35;83.02;97658.89;108220;1274;22736;-76
2022/01/04 02:22:50;;;;;;;8.60;3.80;;;;;;;5.31;83.38;97655.34;108237;1274;22666;-76
2022/01/04 02:25:18;;;;;;;9.10;4.90;;;;;;;5.27;82.89;97653.84;108250;1274;22577;-76
2022/01/04 02:27:45;;;;;;;8.00;4.30;;;;;;;5.26;82.41;97651.65;108236;1274;22550;-76
2022/01/04 02:30:16;;;;;;;10.10;4.70;;;;;;;5.29;82.66;97658.02;108353;1274;22628;-77
2022/01/04 02:32:44;;;;;;;8.50;4.50;;;;;;;5.28;82.96;97656.15;108238;1274;24435;-76
2022/01/04 02:35:13;;;;;;;10.90;4.60;;;;;;;5.29;83.32;97648.38;108199;1274;22559;-76
2022/01/04 02:37:41;;;;;;;11.20;4.40;;;;;;;5.26;83.47;97640.77;108217;1274;22551;-76
2022/01/04 02:40:08;;;;;;;10.50;4.70;;;;;;;5.22;83.36;97634.62;108252;1274;22618;-75
2022/01/04 02:42:35;;;;;;;10.40;4.70;;;;;;;5.18;83.27;97633.14;108235;1274;22556;-76
2022/01/04 02:45:03;;;;;;;13.40;5.90;;;;;;;5.23;83.20;97631.14;108247;1274;22636;-76
2022/01/04 02:47:30;;;;;;;9.40;5.10;;;;;;;5.24;83.64;97627.83;108244;1274;22552;-76
2022/01/04 02:49:57;;;;;;;10.10;5.90;;;;;;;5.23;83.78;97628.20;108214;1274;22710;-76
2022/01/04 02:52:24;;;;;;;9.80;5.10;;;;;;;5.20;83.58;97624.20;108232;1274;22561;-77
2022/01/04 02:54:51;;;;;;;9.50;5.40;;;;;;;5.17;83.75;97614.73;108225;1274;22548;-76
2022/01/04 02:57:19;;;;;;;11.30;5.20;;;;;;;5.16;83.59;97608.42;108241;1274;22595;-77
2022/01/04 02:59:46;;;;;;;9.90;5.30;;;;;;;5.20;83.45;97602.50;108193;1274;23954;-76
2022/01/04 03:02:13;;;;;;;11.10;5.80;;;;;;;5.21;83.69;97601.20;108215;1274;22549;-76
2022/01/04 03:04:40;;;;;;;10.60;5.30;;;;;;;5.18;83.75;97596.08;108244;1274;22570;-75
2022/01/04 03:07:06;;;;;;;12.80;6.40;;;;;;;5.15;83.81;97593.98;108172;1274;22528;-75
2022/01/04 03:09:33;;;;;;;12.20;6.30;;;;;;;5.14;83.71;97595.27;108231;1274;22552;-75
2022/01/04 03:12:00;;;;;;;10.70;6.00;;;;;;;5.13;83.54;97590.63;108243;1274;22608;-75
2022/01/04 03:14:27;;;;;;;13.30;8.00;;;;;;;5.14;83.43;97587.46;108239;1274;22551;-75
2022/01/04 03:16:54;;;;;;;11.80;6.30;;;;;;;5.16;83.81;97581.00;108239;1274;22550;-75
2022/01/04 03:19:21;;;;;;;11.50;6.10;;;;;;;5.16;83.90;97583.22;108219;1274;22640;-75
2022/01/04 03:21:48;;;;;;;11.60;6.40;;;;;;;5.16;83.98;97575.13;108203;1274;23100;-75
2022/01/04 03:24:16;;;;;;;14.40;7.50;;;;;;;5.16;83.66;97574.78;108210;1274;22941;-75
2022/01/04 03:26:44;;;;;;;13.80;6.90;;;;;;;5.14;83.64;97564.36;108206;1274;22547;-74
2022/01/04 03:29:13;;;;;;;14.00;7.20;;;;;;;5.18;83.55;97563.94;108288;1274;22535;-75
2022/01/04 03:31:41;;;;;;;13.20;6.80;;;;;;;5.22;83.56;97562.98;108225;1273;22538;-74
2022/01/04 03:34:09;;;;;;;12.30;7.00;;;;;;;5.23;83.72;97560.35;108227;1274;22559;-75
2022/01/04 03:36:37;;;;;;;13.70;7.50;;;;;;;5.22;83.86;97554.20;108175;1274;22567;-74
2022/01/04 03:39:06;;;;;;;15.20;7.40;;;;;;;5.20;84.01;97548.09;108212;1274;22540;-74
2022/01/04 03:41:38;;;;;;;11.40;6.70;;;;;;;5.19;83.75;97545.09;108226;1274;25382;-74
2022/01/04 03:44:07;;;;;;;13.30;7.50;;;;;;;5.18;83.46;97539.05;108242;1274;22627;-74
2022/01/04 03:46:34;;;;;;;12.70;6.90;;;;;;;5.22;83.38;97537.44;108222;1274;22560;-74
2022/01/04 03:49:01;;;;;;;16.20;6.70;;;;;;;5.24;83.72;97534.60;108395;1274;22617;-77
2022/01/04 03:51:28;;;;;;;14.00;7.30;;;;;;;5.23;83.97;97534.82;108425;1274;25276;-74
2022/01/04 03:53:55;;;;;;;12.40;6.90;;;;;;;5.20;84.14;97535.34;108416;1272;22551;-74
2022/01/04 03:56:22;;;;;;;13.10;6.80;;;;;;;5.18;83.90;97525.78;108434;1274;26676;-75
2022/01/04 03:58:49;;;;;;;13.70;7.20;;;;;;;5.19;83.90;97522.33;108430;1274;22554;-74
2022/01/04 04:01:16;;;;;;;10.50;7.10;;;;;;;5.22;83.61;97523.27;108441;1274;22596;-74
2022/01/04 04:03:43;;;;;;;10.20;6.30;;;;;;;5.25;83.89;97517.59;108431;1274;24116;-74
2022/01/04 04:06:10;;;;;;;14.80;7.10;;;;;;;5.26;84.05;97520.47;108434;1274;22615;-75
2022/01/04 04:08:37;;;;;;;13.50;7.20;;;;;;;5.25;84.00;97521.08;108436;1274;22553;-75
2022/01/04 04:11:04;;;;;;;10.30;7.30;;;;;;;5.23;83.93;97515.66;108435;1274;22557;-75
2022/01/04 04:13:31;;;;;;;11.80;7.30;;;;;;;5.21;83.83;97513.16;108459;1274;22544;-75
2022/01/04 04:15:59;;;;;;;13.80;7.40;;;;;;;5.25;83.80;97518.48;108427;1274;22562;-74
2022/01/04 04:18:25;;;;;;;13.10;7.10;;;;;;;5.26;84.09;97514.46;108429;1274;22546;-73
2022/01/04 04:20:52;;;;;;;11.90;6.50;;;;;;;5.29;84.17;97514.42;108424;1274;22550;-74
2022/01/04 04:23:19;;;;;;;12.20;6.50;;;;;;;5.29;84.44;97511.67;108436;1274;22560;-74
2022/01/04 04:25:46;;;;;;;12.50;6.20;;;;;;;5.26;84.51;97514.59;108412;1274;22552;-74
2022/01/04 04:28:13;;;;;;;15.10;7.00;;;;;;;5.26;84.40;97506.13;108426;1274;22546;-75
2022/01/04 04:30:40;;;;;;;16.70;7.90;;;;;;;5.30;84.51;97498.13;108435;1274;24224;-74
2022/01/04 04:33:07;;;;;;;14.70;8.20;;;;;;;5.34;84.76;97496.02;108424;1274;22561;-75
2022/01/04 04:35:34;;;;;;;13.10;7.30;;;;;;;5.35;84.87;97495.79;108434;1274;22607;-74
2022/01/04 04:38:02;;;;;;;15.00;7.50;;;;;;;5.35;84.76;97494.72;108446;1274;22595;-74
2022/01/04 04:40:29;;;;;;;17.10;8.40;;;;;;;5.35;84.57;97484.74;108442;1273;22553;-74
2022/01/04 04:42:56;;;;;;;14.20;9.00;;;;;;;5.36;84.51;97479.67;108434;1274;22491;-74
2022/01/04 04:45:23;;;;;;;16.60;10.10;;;;;;;5.40;84.40;97482.64;108425;1274;22585;-74
2022/01/04 04:47:50;;;;;;;21.80;9.70;;;;;;;5.44;84.52;97482.77;108417;1274;23384;-75
2022/01/04 04:50:17;;;;;;;18.00;9.40;;;;;;;5.46;84.58;97478.48;108425;1274;22544;-75
2022/01/04 04:52:45;;;;;;;17.20;9.80;;;;;;;5.44;84.82;97472.42;108429;1274;22581;-76
2022/01/04 04:55:12;;;;;;;17.30;9.30;;;;;;;5.44;84.61;97476.40;108451;1273;22692;-75
2022/01/04 04:57:40;;;;;;;17.60;8.60;;;;;;;5.40;84.86;97472.62;108429;1274;22573;-75
2022/01/04 05:00:09;;;;;;;14.80;9.40;;;;;;;5.41;84.30;97465.71;108458;1274;22594;-75
2022/01/04 05:02:37;;;;;;;18.10;10.00;;;;;;;5.44;84.22;97463.39;108418;1274;25734;-74
2022/01/04 05:05:05;;;;;;;16.40;9.50;;;;;;;5.46;84.32;97458.64;108444;1274;25323;-75
2022/01/04 05:07:32;;;;;;;14.30;8.60;;;;;;;5.47;84.57;97457.69;108433;1274;22598;-75
2022/01/04 05:09:59;;;;;;;14.50;9.20;;;;;;;5.46;84.99;97456.37;108438;1274;25315;-76
2022/01/04 05:12:26;;;;;;;17.40;9.10;;;;;;;5.44;85.17;97452.73;108466;1274;22640;-77
2022/01/04 05:14:53;;;;;;;12.50;7.90;;;;;;;5.45;84.39;97448.18;108450;1274;22618;-77
2022/01/04 05:17:20;;;;;;;17.80;9.30;;;;;;;5.50;84.44;97443.35;108483;1274;22713;-77
2022/01/04 05:19:47;;;;;;;17.50;8.90;;;;;;;5.53;84.72;97440.20;108552;1274;22549;-77
2022/01/04 05:22:14;;;;;;;16.30;8.60;;;;;;;5.52;84.82;97438.38;108479;1274;22564;-76
2022/01/04 05:24:41;;;;;;;15.30;8.30;;;;;;;5.50;84.92;97442.30;108437;1274;24229;-80
2022/01/04 05:27:08;;;;;;;14.50;8.40;;;;;;;5.49;84.63;97436.70;108432;1274;22625;-74
2022/01/04 05:29:35;;;;;;;15.10;8.30;;;;;;;5.48;84.58;97433.99;108491;1274;22567;-74
2022/01/04 05:32:02;;;;;;;16.50;8.90;;;;;;;5.50;84.59;97433.66;108490;1274;22586;-74
2022/01/04 05:34:29;;;;;;;17.00;8.50;;;;;;;5.52;84.85;97433.17;108424;1274;22556;-73
2022/01/04 05:36:56;;;;;;;15.40;8.20;;;;;;;5.52;85.12;97428.52;108429;1274;22552;-74
2022/01/04 05:39:23;;;;;;;17.60;9.00;;;;;;;5.50;85.14;97425.77;108435;1274;22559;-77
2022/01/04 05:41:50;;;;;;;15.70;8.40;;;;;;;5.47;84.83;97417.60;108428;1274;22559;-74
2022/01/04 05:44:17;;;;;;;15.80;7.90;;;;;;;5.47;84.81;97415.02;108475;1274;26007;-74
2022/01/04 05:46:44;;;;;;;17.30;7.70;;;;;;;5.52;84.70;97417.48;108449;1274;23949;-75
2022/01/04 05:49:11;;;;;;;17.60;8.00;;;;;;;5.53;84.88;97408.95;108442;1274;22624;-74
2022/01/04 05:51:38;;;;;;;13.60;6.70;;;;;;;5.55;85.05;97410.21;108470;1274;22595;-75
2022/01/04 05:54:05;;;;;;;14.40;7.50;;;;;;;5.57;85.23;97408.55;108454;1274;25384;-74
2022/01/04 05:56:32;;;;;;;15.20;7.10;;;;;;;5.56;85.11;97405.33;108214;1274;22590;-74
2022/01/04 05:58:59;;;;;;;15.80;8.20;;;;;;;5.53;85.12;97398.77;108235;1274;22831;-74
2022/01/04 06:01:26;;;;;;;15.00;7.30;;;;;;;5.56;85.11;97396.02;108242;1274;22535;-74
2022/01/04 06:03:53;;;;;;;16.30;8.60;;;;;;;5.62;85.02;97397.82;108233;1274;25373;-75
2022/01/04 06:06:20;;;;;;;18.90;7.80;;;;;;;5.67;85.03;97395.45;108184;1274;22594;-75
2022/01/04 06:08:48;;;;;;;15.00;7.80;;;;;;;5.67;85.33;97386.98;108226;1274;22622;-74
2022/01/04 06:11:31;;;;;;;18.30;8.40;;;;;;;5.68;85.24;97387.62;108214;1274;23077;-74
2022/01/04 06:16:44;;;;;;;31.00;12.60;;;;;;;5.64;85.21;97390.08;108211;1274;25325;-74
2022/01/04 06:19:10;;;;;;;21.50;7.80;;;;;;;5.65;84.82;97389.22;108230;1274;22552;-75
2022/01/04 06:21:37;;;;;;;18.20;7.70;;;;;;;5.70;84.53;97383.04;108229;1274;22576;-76
2022/01/04 06:24:05;;;;;;;18.60;7.40;;;;;;;5.75;84.99;97378.37;108232;1274;22605;-75
2022/01/04 06:26:32;;;;;;;16.30;8.00;;;;;;;5.75;85.17;97375.77;108272;1274;22547;-74
2022/01/04 06:28:59;;;;;;;18.10;7.00;;;;;;;5.77;85.36;97368.55;108206;1274;22710;-74
2022/01/04 06:31:27;;;;;;;17.50;6.90;;;;;;;5.74;85.16;97364.80;108215;1274;22537;-75
2022/01/04 06:33:54;;;;;;;25.60;9.30;;;;;;;5.70;85.01;97360.36;108210;1274;22723;-74
2022/01/04 06:36:21;;;;;;;23.20;9.40;;;;;;;5.68;84.81;97358.26;108227;1274;22582;-74
2022/01/04 06:38:48;;;;;;;18.90;7.50;;;;;;;5.69;84.46;97357.54;108293;1274;24357;-75
2022/01/04 06:41:16;;;;;;;14.80;7.10;;;;;;;5.72;84.67;97358.22;108235;1274;22637;-74
2022/01/04 06:43:43;;;;;;;23.90;9.50;;;;;;;5.72;84.73;97356.08;108202;1274;22558;-75
2022/01/04 06:46:11;;;;;;;14.20;6.50;;;;;;;5.73;85.13;97353.27;108261;1274;22608;-74
2022/01/04 06:48:38;;;;;;;15.80;6.60;;;;;;;5.74;85.17;97352.52;108276;1274;24056;-75
2022/01/04 06:51:05;;;;;;;21.00;7.80;;;;;;;5.73;85.04;97353.98;108252;1274;22552;-76
2022/01/04 06:53:32;;;;;;;20.70;7.40;;;;;;;5.73;84.75;97356.38;108245;1274;22614;-76
2022/01/04 06:55:59;;;;;;;13.60;6.10;;;;;;;5.72;84.83;97357.65;108202;1274;22671;-75
2022/01/04 06:58:26;;;;;;;19.30;7.60;;;;;;;5.75;84.82;97355.88;108231;1274;22558;-74
2022/01/04 07:00:53;;;;;;;16.30;7.00;;;;;;;5.79;85.09;97349.43;108279;1274;24289;-74
2022/01/04 07:03:20;;;;;;;16.80;6.70;;;;;;;5.80;85.23;97345.52;108266;1274;22546;-75
2022/01/04 07:05:47;;;;;;;16.40;6.00;;;;;;;5.82;85.18;97340.75;108591;1274;22725;-74
2022/01/04 07:08:14;;;;;;;18.60;7.50;;;;;;;5.83;85.08;97333.42;108207;1274;26693;-74
2022/01/04 07:10:41;;;;;;;13.40;6.10;;;;;;;5.80;85.01;97329.83;108240;1274;22738;-74
2022/01/04 07:13:08;;;;;;;16.40;6.70;;;;;;;5.81;84.76;97329.23;108233;1274;22590;-75
2022/01/04 07:15:36;;;;;;;12.00;5.80;;;;;;;5.83;84.98;97324.27;108260;1274;22534;-76
2022/01/04 07:18:03;;;;;;;12.20;5.80;;;;;;;5.87;85.29;97322.13;108239;1274;22549;-77
2022/01/04 07:20:30;;;;;;;13.60;6.40;;;;;;;5.90;85.26;97313.81;108195;1274;24693;-75
2022/01/04 07:22:57;;;;;;;10.90;4.70;;;;;;;5.90;85.15;97309.67;108222;1274;22557;-75
2022/01/04 07:25:24;;;;;;;12.10;5.10;;;;;;;5.91;84.95;97311.13;108240;1274;22566;-74
2022/01/04 07:27:51;;;;;;;12.00;5.00;;;;;;;5.89;84.93;97307.45;108197;1272;22556;-74
2022/01/04 07:30:18;;;;;;;10.20;4.50;;;;;;;5.91;84.86;97307.33;108225;1274;22611;-74
2022/01/04 07:32:45;;;;;;;13.90;5.20;;;;;;;5.96;84.83;97314.60;108204;1274;25470;-75
2022/01/04 07:35:11;;;;;;;9.10;4.40;;;;;;;5.98;85.09;97307.16;108221;1274;22569;-74
2022/01/04 07:37:38;;;;;;;10.50;4.90;;;;;;;6.02;85.42;97300.38;108239;1274;23058;-74
2022/01/04 07:40:07;;;;;;;13.40;4.40;;;;;;;6.04;85.45;97295.59;108241;1274;22561;-74
2022/01/04 07:42:34;;;;;;;12.20;5.30;;;;;;;6.06;85.28;97295.08;108326;1274;22563;-75
2022/01/04 07:45:02;;;;;;;13.40;5.90;;;;;;;6.02;85.12;97297.23;108209;1274;22586;-74
2022/01/04 07:47:29;;;;;;;16.50;7.20;;;;;;;6.03;85.09;97299.46;108218;1274;22617;-74
2022/01/04 07:49:56;;;;;;;15.10;7.40;;;;;;;6.10;84.89;97294.52;108240;1274;22605;-74
2022/01/04 07:52:23;;;;;;;17.40;8.10;;;;;;;6.14;85.07;97289.70;108224;1274;22540;-74
2022/01/04 07:54:50;;;;;;;14.40;7.30;;;;;;;6.18;85.32;97277.52;108233;1274;22723;-74
2022/01/04 07:57:17;;;;;;;18.30;8.40;;;;;;;6.20;85.31;97270.77;108241;1274;22561;-75
2022/01/04 07:59:44;;;;;;;21.10;9.90;;;;;;;6.20;85.14;97272.83;108205;1274;22561;-73
2022/01/04 08:02:11;;;;;;;24.80;13.30;;;;;;;6.20;84.87;97262.66;108226;1274;22544;-74
2022/01/04 08:04:37;;;;;;;24.90;12.60;;;;;;;6.19;84.80;97258.58;108210;1274;22761;-74
2022/01/04 08:07:04;;;;;;;25.00;11.90;;;;;;;6.26;84.79;97255.81;108226;1274;22551;-74
2022/01/04 08:09:32;;;;;;;24.80;11.20;;;;;;;6.31;84.90;97240.95;108225;1274;22573;-74
2022/01/04 08:11:59;;;;;;;20.90;10.90;;;;;;;6.35;85.02;97241.92;108223;1274;22534;-74
2022/01/04 08:14:26;;;;;;;20.80;11.20;;;;;;;6.38;85.04;97231.13;108213;1274;22557;-74
2022/01/04 08:16:53;;;;;;;27.40;13.00;;;;;;;6.38;84.93;97224.20;108231;1274;22552;-74
2022/01/04 08:19:20;;;;;;;25.40;11.60;;;;;;;6.41;84.57;97224.39;108228;1274;23485;-74
2022/01/04 08:21:48;;;;;;;23.30;12.60;;;;;;;6.48;84.54;97221.28;108212;1274;23487;-75
2022/01/04 08:24:15;;;;;;;24.00;11.40;;;;;;;6.54;84.76;97212.05;108227;1274;22583;-76
2022/01/04 08:26:42;;;;;;;25.90;12.50;;;;;;;6.57;84.68;97211.50;108226;1274;22563;-76
2022/01/04 08:29:09;;;;;;;20.50;11.60;;;;;;;6.53;84.66;97198.63;108218;1274;22574;-74
2022/01/04 08:31:35;;;;;;;23.40;11.10;;;;;;;6.53;84.38;97184.23;108236;1274;22566;-74
2022/01/04 08:34:02;;;;;;;22.20;11.40;;;;;;;6.56;84.28;97182.66;108230;1274;22608;-75
2022/01/04 08:36:29;;;;;;;20.70;10.40;;;;;;;6.54;84.07;97175.36;108216;1272;22578;-75
2022/01/04 08:38:57;;;;;;;18.10;9.40;;;;;;;6.59;83.92;97173.45;108223;1274;22553;-74
2022/01/04 08:41:24;;;;;;;18.90;8.80;;;;;;;6.57;84.11;97166.70;108336;1274;24419;-74
2022/01/04 08:43:51;;;;;;;18.70;9.40;;;;;;;6.56;84.41;97163.82;108224;1274;25437;-74
2022/01/04 08:46:18;;;;;;;20.30;10.30;;;;;;;6.57;84.33;97155.75;108255;1274;22626;-74
2022/01/04 08:48:45;;;;;;;23.10;11.10;;;;;;;6.55;84.22;97156.08;108224;1274;22552;-76
2022/01/04 08:51:12;;;;;;;23.50;12.30;;;;;;;6.55;83.94;97149.48;108236;1274;22548;-74
2022/01/04 08:53:39;;;;;;;24.20;13.30;;;;;;;6.53;83.79;97144.46;108247;1273;22635;-74
2022/01/04 08:56:06;;;;;;;23.00;14.00;;;;;;;6.58;83.87;97135.45;108237;1274;22609;-74
2022/01/04 08:58:33;;;;;;;23.20;15.30;;;;;;;6.61;83.87;97126.59;108241;1274;22676;-74
2022/01/04 09:01:02;;;;;;;29.40;17.00;;;;;;;6.63;84.11;97126.09;108234;1274;22534;-74
2022/01/04 09:03:30;;;;;;;25.00;17.10;;;;;;;6.63;84.22;97122.67;108212;1274;25503;-74
2022/01/04 09:05:57;;;;;;;32.80;20.10;;;;;;;6.62;83.83;97124.96;108227;1274;22559;-74
2022/01/04 09:08:24;;;;;;;36.60;20.60;;;;;;;6.61;83.71;97116.25;108214;1274;22563;-74
2022/01/04 09:10:51;;;;;;;35.40;20.60;;;;;;;6.67;83.63;97106.44;108202;1274;22562;-74
2022/01/04 09:13:20;;;;;;;32.70;18.80;;;;;;;6.73;83.68;97105.09;108212;1274;22550;-74
2022/01/04 09:18:44;;;;;;;33.10;17.40;;;;;;;6.78;83.75;97102.48;108050;1274;25389;-73
2022/01/04 09:21:13;;;;;;;33.00;18.00;;;;;;;6.76;83.52;97094.35;108254;1274;22538;-74
2022/01/04 09:23:41;;;;;;;28.80;16.30;;;;;;;6.77;83.23;97090.98;108210;1274;22548;-74
2022/01/04 09:26:09;;;;;;;28.60;15.60;;;;;;;6.79;82.95;97088.41;108308;1274;22791;-74
2022/01/04 09:28:36;;;;;;;24.20;14.20;;;;;;;6.87;83.16;97081.80;108227;1274;22553;-74
2022/01/04 09:31:04;;;;;;;22.00;12.30;;;;;;;6.93;83.27;97073.20;108244;1274;22566;-75
2022/01/04 09:33:32;;;;;;;28.20;13.70;;;;;;;6.99;83.41;97060.08;108278;1274;22861;-74
2022/01/04 09:35:59;;;;;;;26.00;13.80;;;;;;;7.04;83.19;97057.66;108766;1274;22606;-74
2022/01/04 09:38:26;;;;;;;26.00;14.40;;;;;;;7.07;83.11;97049.78;108194;1274;22589;-79
2022/01/04 09:40:54;;;;;;;28.80;18.00;;;;;;;7.11;82.82;97043.21;108211;1274;22740;-75
2022/01/04 09:43:23;;;;;;;24.10;13.00;;;;;;;7.16;82.31;97037.52;108209;1274;22549;-78
2022/01/04 09:45:49;;;;;;;26.10;14.00;;;;;;;7.19;82.20;97033.86;108182;1274;22597;-75
2022/01/04 09:48:16;;;;;;;24.50;12.70;;;;;;;7.27;82.03;97025.75;108210;1274;22696;-74
2022/01/04 09:50:44;;;;;;;26.30;13.80;;;;;;;7.28;82.10;97024.45;108239;1274;22612;-80
2022/01/04 09:53:19;;;;;;;29.90;15.20;;;;;;;7.32;82.70;97022.59;108259;1274;22555;-74
2022/01/04 09:55:54;;;;;;;33.30;17.20;;;;;;;7.36;82.16;97015.84;108333;1274;22638;-75
2022/01/04 09:58:23;;;;;;;34.80;17.20;;;;;;;7.36;81.90;97016.74;108448;1274;22578;-77
2022/01/04 10:00:51;;;;;;;32.40;18.40;;;;;;;7.35;81.82;97011.12;108457;1274;22646;-75
2022/01/04 10:03:26;;;;;;;31.20;16.20;;;;;;;7.37;81.64;97011.45;108449;1274;22608;-78
2022/01/04 10:06:07;;;;;;;25.40;14.10;;;;;;;7.43;81.57;97009.08;108442;1274;22652;-75
2022/01/04 10:08:52;;;;;;;28.20;15.00;;;;;;;7.43;81.59;97003.56;108450;1274;22631;-75
2022/01/04 10:11:33;;;;;;;30.40;15.30;;;;;;;7.39;81.52;96999.35;108446;1274;22567;-77
2022/01/04 10:14:01;;;;;;;35.10;16.00;;;;;;;7.38;81.79;96999.61;108415;1274;22566;-76
2022/01/04 10:16:28;;;;;;;32.10;14.80;;;;;;;7.36;81.62;96992.64;108448;1274;23048;-73
2022/01/04 10:18:55;;;;;;;31.30;16.70;;;;;;;7.34;81.31;96988.13;108436;1274;24410;-73
2022/01/04 10:21:22;;;;;;;39.10;19.40;;;;;;;7.33;81.12;96981.43;108432;1274;22537;-72
2022/01/04 10:23:55;;;;;;;31.90;16.60;;;;;;;7.38;81.22;96975.69;108447;1274;22551;-73
2022/01/04 10:26:49;;;;;;;32.80;17.40;;;;;;;7.42;81.38;96973.67;108425;1274;22565;-75
2022/01/04 10:29:21;;;;;;;31.30;17.30;;;;;;;7.43;81.43;96966.84;108414;1274;22572;-76
2022/01/04 10:31:48;;;;;;;34.30;19.00;;;;;;;7.41;81.66;96963.91;108467;1274;22632;-75
2022/01/04 10:34:15;;;;;;;38.20;21.00;;;;;;;7.38;81.37;96956.30;108433;1274;22552;-75
2022/01/04 10:36:44;;;;;;;37.20;20.40;;;;;;;7.37;81.22;96956.72;108428;1274;22598;-75
2022/01/04 10:39:11;;;;;;;31.20;15.00;;;;;;;7.38;80.93;96948.71;108464;1274;22550;-74
2022/01/04 10:41:38;;;;;;;25.10;13.50;;;;;;;7.41;80.97;96947.09;108448;1274;22744;-75
2022/01/04 10:44:09;;;;;;;26.00;13.00;;;;;;;7.39;81.43;96944.61;108450;1274;24373;-74
2022/01/04 10:46:43;;;;;;;30.80;15.10;;;;;;;7.40;81.52;96940.05;108425;1274;22563;-75
2022/01/04 10:49:19;;;;;;;26.40;13.60;;;;;;;7.34;81.61;96937.21;108419;1274;22550;-75
2022/01/04 10:52:07;;;;;;;27.90;14.40;;;;;;;7.32;81.36;96937.40;108442;1273;22643;-75
2022/01/04 10:54:35;;;;;;;29.20;14.10;;;;;;;7.29;81.53;96941.77;108415;1274;22642;-75
2022/01/04 10:57:09;;;;;;;28.40;14.30;;;;;;;7.29;81.51;96939.91;108413;1274;22587;-75
2022/01/04 10:59:36;;;;;;;26.30;12.60;;;;;;;7.29;82.05;96937.96;108449;1274;22583;-75
2022/01/04 11:02:04;;;;;;;25.20;12.40;;;;;;;7.34;82.03;96936.32;108438;1274;22579;-75
2022/01/04 11:04:31;;;;;;;25.50;13.00;;;;;;;7.34;82.32;96934.13;108430;1274;23903;-75
2022/01/04 11:07:00;;;;;;;23.00;12.90;;;;;;;7.32;82.35;96935.11;108434;1274;22742;-75
2022/01/04 11:09:27;;;;;;;23.90;11.60;;;;;;;7.32;82.52;96931.02;108438;1274;22557;-75
2022/01/04 11:11:54;;;;;;;24.50;11.90;;;;;;;7.35;82.39;96928.35;108432;1274;22665;-75
2022/01/04 11:14:21;;;;;;;27.60;12.70;;;;;;;7.41;82.33;96920.56;108439;1274;22540;-75
2022/01/04 11:16:48;;;;;;;21.60;11.90;;;;;;;7.48;82.51;96920.33;108436;1274;22547;-74
2022/01/04 11:19:19;;;;;;;28.30;11.90;;;;;;;7.51;82.96;96919.21;108431;1274;22563;-76
2022/01/04 11:21:47;;;;;;;28.60;14.00;;;;;;;7.51;82.85;96909.67;108468;1274;22551;-73
2022/01/04 11:24:17;;;;;;;24.80;12.70;;;;;;;7.51;82.74;96900.34;108437;1274;22601;-74
2022/01/04 11:26:47;;;;;;;26.70;13.30;;;;;;;7.53;82.78;96895.70;108426;1274;22553;-74
2022/01/04 11:29:20;;;;;;;25.20;13.00;;;;;;;7.58;82.87;96890.15;108437;1274;22572;-73
2022/01/04 11:32:03;;;;;;;22.70;10.60;;;;;;;7.64;82.88;96882.15;108435;1274;22569;-74
2022/01/04 11:35:16;;;;;;;13.50;7.30;;;;;;;7.69;83.02;96877.24;108437;1274;22580;-74
2022/01/04 11:37:54;;;;;;;17.40;7.80;;;;;;;7.65;82.94;96870.30;108423;1274;26970;-74